sensor_id;sensor_type;location;lat;lon;timestamp;P1;durP1;ratioP1;P2;durP2;ratioP2
63965;SDS011;50151;52.030;5.350;2023-02-28T10:51:10;1.85;;;1.45;;
63965;SDS011;50151;52.030;5.350;2023-02-28T10:53:48;1.88;;;1.20;;
63965;SDS011;50151;52.030;5.350;2023-02-28T10:56:26;2.05;;;1.60;;
63965;SDS011;50151;52.030;5.350;2023-02-28T10:59:01;2.78;;;1.45;;
63965;SDS011;50151;52.030;5.350;2023-02-28T11:01:38;1.92;;;1.30;;
63965;SDS011;50151;52.030;5.350;2023-02-28T11:04:32;2.65;;;1.77;;
63965;SDS011;50151;52.030;5.350;2023-02-28T11:07:19;1.38;;;1.10;;
63965;SDS011;50151;52.030;5.350;2023-02-28T11:09:51;3.53;;;1.70;;
63965;SDS011;50151;52.030;5.350;2023-02-28T11:14:58;2.70;;;1.38;;
63965;SDS011;50151;52.030;5.350;2023-02-28T11:17:28;3.05;;;1.48;;
63965;SDS011;50151;52.030;5.350;2023-02-28T11:19:58;2.10;;;1.40;;
63965;SDS011;50151;52.030;5.350;2023-02-28T11:22:38;2.78;;;1.23;;
63965;SDS011;50151;52.030;5.350;2023-02-28T11:25:10;2.60;;;1.38;;
63965;SDS011;50151;52.030;5.350;2023-02-28T11:27:54;2.78;;;1.55;;
63965;SDS011;50151;52.030;5.350;2023-02-28T11:30:30;2.75;;;1.40;;
63965;SDS011;50151;52.030;5.350;2023-02-28T11:33:01;2.10;;;1.50;;
63965;SDS011;50151;52.030;5.350;2023-02-28T11:35:47;1.67;;;1.42;;
63965;SDS011;50151;52.030;5.350;2023-02-28T11:38:16;2.42;;;1.48;;
63965;SDS011;50151;52.030;5.350;2023-02-28T11:40:48;2.20;;;1.48;;
63965;SDS011;50151;52.030;5.350;2023-02-28T11:46:15;2.50;;;1.83;;
63965;SDS011;50151;52.030;5.350;2023-02-28T11:56:58;2.67;;;1.50;;
63965;SDS011;50151;52.030;5.350;2023-02-28T11:59:58;1.80;;;1.40;;
63965;SDS011;50151;52.030;5.350;2023-02-28T12:02:34;5.22;;;1.70;;
63965;SDS011;50151;52.030;5.350;2023-02-28T12:05:34;4.47;;;1.50;;
63965;SDS011;50151;52.030;5.350;2023-02-28T12:08:20;2.08;;;1.48;;
63965;SDS011;50151;52.030;5.350;2023-02-28T12:17:00;2.03;;;1.52;;
63965;SDS011;50151;52.030;5.350;2023-02-28T12:20:02;1.45;;;1.25;;
63965;SDS011;50151;52.030;5.350;2023-02-28T12:22:42;3.80;;;1.67;;
63965;SDS011;50151;52.030;5.350;2023-02-28T12:25:21;2.65;;;1.40;;
63965;SDS011;50151;52.030;5.350;2023-02-28T12:28:00;2.53;;;1.63;;
63965;SDS011;50151;52.030;5.350;2023-02-28T12:30:28;4.63;;;1.52;;
63965;SDS011;50151;52.030;5.350;2023-02-28T12:33:08;2.38;;;1.40;;
63965;SDS011;50151;52.030;5.350;2023-02-28T12:38:51;2.53;;;1.52;;
63965;SDS011;50151;52.030;5.350;2023-02-28T12:43:48;4.80;;;1.80;;
63965;SDS011;50151;52.030;5.350;2023-02-28T12:46:32;3.95;;;2.13;;
63965;SDS011;50151;52.030;5.350;2023-02-28T12:49:08;1.52;;;1.15;;
63965;SDS011;50151;52.030;5.350;2023-02-28T12:51:42;2.42;;;1.50;;
63965;SDS011;50151;52.030;5.350;2023-02-28T12:59:37;1.40;;;1.30;;
63965;SDS011;50151;52.030;5.350;2023-02-28T13:05:07;1.95;;;1.52;;
63965;SDS011;50151;52.030;5.350;2023-02-28T13:10:21;2.35;;;1.73;;
63965;SDS011;50151;52.030;5.350;2023-02-28T13:12:49;2.67;;;1.98;;
63965;SDS011;50151;52.030;5.350;2023-02-28T13:15:19;2.83;;;1.30;;
63965;SDS011;50151;52.030;5.350;2023-02-28T13:17:55;2.08;;;1.58;;
63965;SDS011;50151;52.030;5.350;2023-02-28T13:20:27;3.30;;;1.67;;
63965;SDS011;50151;52.030;5.350;2023-02-28T13:22:59;2.50;;;1.75;;
63965;SDS011;50151;52.030;5.350;2023-02-28T13:28:00;3.00;;;1.70;;
63965;SDS011;50151;52.030;5.350;2023-02-28T13:35:46;2.85;;;1.58;;
63965;SDS011;50151;52.030;5.350;2023-02-28T13:38:17;5.22;;;1.75;;
63965;SDS011;50151;52.030;5.350;2023-02-28T13:40:49;2.22;;;1.60;;
63965;SDS011;50151;52.030;5.350;2023-02-28T13:43:16;3.35;;;1.73;;
63965;SDS011;50151;52.030;5.350;2023-02-28T13:46:06;2.00;;;1.80;;
63965;SDS011;50151;52.030;5.350;2023-02-28T13:48:37;13.13;;;3.53;;
63965;SDS011;50151;52.030;5.350;2023-02-28T13:51:48;2.47;;;1.83;;
63965;SDS011;50151;52.030;5.350;2023-02-28T13:57:23;2.58;;;1.63;;
63965;SDS011;50151;52.030;5.350;2023-02-28T14:05:36;2.15;;;1.80;;
63965;SDS011;50151;52.030;5.350;2023-02-28T14:08:10;2.17;;;1.77;;
63965;SDS011;50151;52.030;5.350;2023-02-28T14:10:50;2.60;;;1.85;;
63965;SDS011;50151;52.030;5.350;2023-02-28T14:13:44;2.88;;;1.85;;
63965;SDS011;50151;52.030;5.350;2023-02-28T14:16:13;2.28;;;1.67;;
63965;SDS011;50151;52.030;5.350;2023-02-28T14:18:50;2.72;;;1.85;;
63965;SDS011;50151;52.030;5.350;2023-02-28T14:21:33;2.67;;;1.73;;
63965;SDS011;50151;52.030;5.350;2023-02-28T14:24:16;3.55;;;1.88;;
63965;SDS011;50151;52.030;5.350;2023-02-28T14:27:11;2.17;;;1.80;;
63965;SDS011;50151;52.030;5.350;2023-02-28T14:33:01;5.18;;;1.92;;
63965;SDS011;50151;52.030;5.350;2023-02-28T14:38:42;3.00;;;2.00;;
63965;SDS011;50151;52.030;5.350;2023-02-28T14:41:15;2.85;;;1.70;;
63965;SDS011;50151;52.030;5.350;2023-02-28T14:43:49;1.80;;;1.60;;
63965;SDS011;50151;52.030;5.350;2023-02-28T14:46:21;2.63;;;1.70;;
63965;SDS011;50151;52.030;5.350;2023-02-28T14:48:51;1.77;;;1.30;;
63965;SDS011;50151;52.030;5.350;2023-02-28T14:51:21;2.88;;;1.58;;
63965;SDS011;50151;52.030;5.350;2023-02-28T14:53:51;1.70;;;1.42;;
63965;SDS011;50151;52.030;5.350;2023-02-28T14:56:27;2.33;;;1.43;;
63965;SDS011;50151;52.030;5.350;2023-02-28T14:59:04;3.15;;;1.80;;
63965;SDS011;50151;52.030;5.350;2023-02-28T15:01:47;4.30;;;1.80;;
63965;SDS011;50151;52.030;5.350;2023-02-28T15:04:18;3.30;;;1.70;;
63965;SDS011;50151;52.030;5.350;2023-02-28T15:09:39;4.25;;;1.67;;
63965;SDS011;50151;52.030;5.350;2023-02-28T15:12:05;4.97;;;1.80;;
63965;SDS011;50151;52.030;5.350;2023-02-28T15:14:32;2.30;;;1.50;;
63965;SDS011;50151;52.030;5.350;2023-02-28T15:17:06;3.38;;;1.73;;
63965;SDS011;50151;52.030;5.350;2023-02-28T15:19:41;3.97;;;1.75;;
63965;SDS011;50151;52.030;5.350;2023-02-28T15:22:19;1.70;;;1.48;;
63965;SDS011;50151;52.030;5.350;2023-02-28T15:25:06;2.42;;;1.77;;
63965;SDS011;50151;52.030;5.350;2023-02-28T15:27:38;2.92;;;1.70;;
63965;SDS011;50151;52.030;5.350;2023-02-28T15:30:15;2.28;;;1.65;;
63965;SDS011;50151;52.030;5.350;2023-02-28T15:35:28;2.08;;;1.58;;
63965;SDS011;50151;52.030;5.350;2023-02-28T15:38:00;4.18;;;1.40;;
63965;SDS011;50151;52.030;5.350;2023-02-28T15:40:32;2.60;;;1.35;;
63965;SDS011;50151;52.030;5.350;2023-02-28T15:45:55;2.42;;;1.70;;
63965;SDS011;50151;52.030;5.350;2023-02-28T15:48:32;2.55;;;1.45;;
63965;SDS011;50151;52.030;5.350;2023-02-28T15:53:45;6.88;;;1.50;;
63965;SDS011;50151;52.030;5.350;2023-02-28T15:56:23;2.85;;;1.50;;
63965;SDS011;50151;52.030;5.350;2023-02-28T15:58:55;2.42;;;1.80;;
63965;SDS011;50151;52.030;5.350;2023-02-28T16:01:24;3.75;;;1.73;;
63965;SDS011;50151;52.030;5.350;2023-02-28T16:03:57;4.65;;;2.20;;
63965;SDS011;50151;52.030;5.350;2023-02-28T16:06:40;3.78;;;1.83;;
63965;SDS011;50151;52.030;5.350;2023-02-28T16:09:09;3.40;;;1.60;;
63965;SDS011;50151;52.030;5.350;2023-02-28T16:11:41;1.85;;;1.58;;
63965;SDS011;50151;52.030;5.350;2023-02-28T16:14:15;3.70;;;1.60;;
63965;SDS011;50151;52.030;5.350;2023-02-28T16:16:51;3.00;;;1.52;;
63965;SDS011;50151;52.030;5.350;2023-02-28T16:19:19;1.92;;;1.60;;
63965;SDS011;50151;52.030;5.350;2023-02-28T16:21:47;4.15;;;2.10;;
63965;SDS011;50151;52.030;5.350;2023-02-28T16:24:14;3.00;;;1.63;;
63965;SDS011;50151;52.030;5.350;2023-02-28T16:26:41;2.45;;;1.60;;
63965;SDS011;50151;52.030;5.350;2023-02-28T16:29:13;3.33;;;1.77;;
63965;SDS011;50151;52.030;5.350;2023-02-28T16:31:53;3.00;;;1.80;;
63965;SDS011;50151;52.030;5.350;2023-02-28T16:34:20;3.60;;;1.80;;
63965;SDS011;50151;52.030;5.350;2023-02-28T16:36:47;4.45;;;1.90;;
63965;SDS011;50151;52.030;5.350;2023-02-28T16:39:15;3.58;;;1.48;;
63965;SDS011;50151;52.030;5.350;2023-02-28T16:41:43;2.03;;;1.60;;
63965;SDS011;50151;52.030;5.350;2023-02-28T16:44:26;3.45;;;1.75;;
63965;SDS011;50151;52.030;5.350;2023-02-28T16:46:55;2.75;;;1.75;;
63965;SDS011;50151;52.030;5.350;2023-02-28T16:49:22;2.90;;;1.60;;
63965;SDS011;50151;52.030;5.350;2023-02-28T16:51:49;3.08;;;1.70;;
63965;SDS011;50151;52.030;5.350;2023-02-28T16:54:16;3.45;;;1.52;;
63965;SDS011;50151;52.030;5.350;2023-02-28T16:56:43;4.60;;;1.80;;
63965;SDS011;50151;52.030;5.350;2023-02-28T16:59:12;2.10;;;1.52;;
63965;SDS011;50151;52.030;5.350;2023-02-28T17:01:40;3.88;;;1.48;;
63965;SDS011;50151;52.030;5.350;2023-02-28T17:04:08;2.22;;;1.48;;
63965;SDS011;50151;52.030;5.350;2023-02-28T17:06:36;3.03;;;1.40;;
63965;SDS011;50151;52.030;5.350;2023-02-28T17:09:03;3.42;;;1.83;;
63965;SDS011;50151;52.030;5.350;2023-02-28T17:11:30;2.83;;;1.70;;
63965;SDS011;50151;52.030;5.350;2023-02-28T17:13:57;3.78;;;1.70;;
63965;SDS011;50151;52.030;5.350;2023-02-28T17:16:28;3.20;;;1.60;;
63965;SDS011;50151;52.030;5.350;2023-02-28T17:18:58;1.83;;;1.48;;
63965;SDS011;50151;52.030;5.350;2023-02-28T17:21:28;3.00;;;1.60;;
63965;SDS011;50151;52.030;5.350;2023-02-28T17:23:56;2.20;;;1.65;;
63965;SDS011;50151;52.030;5.350;2023-02-28T17:26:23;3.50;;;1.70;;
63965;SDS011;50151;52.030;5.350;2023-02-28T17:28:57;2.58;;;1.77;;
63965;SDS011;50151;52.030;5.350;2023-02-28T17:31:24;1.88;;;1.60;;
63965;SDS011;50151;52.030;5.350;2023-02-28T17:33:52;3.55;;;1.50;;
63965;SDS011;50151;52.030;5.350;2023-02-28T17:36:22;2.65;;;1.90;;
63965;SDS011;50151;52.030;5.350;2023-02-28T17:38:53;5.88;;;1.63;;
63965;SDS011;50151;52.030;5.350;2023-02-28T17:41:24;2.67;;;1.80;;
63965;SDS011;50151;52.030;5.350;2023-02-28T17:43:52;3.33;;;2.00;;
63965;SDS011;50151;52.030;5.350;2023-02-28T17:46:20;3.00;;;1.92;;
63965;SDS011;50151;52.030;5.350;2023-02-28T17:48:52;3.42;;;2.08;;
63965;SDS011;50151;52.030;5.350;2023-02-28T17:51:20;4.53;;;2.08;;
63965;SDS011;50151;52.030;5.350;2023-02-28T17:53:48;7.85;;;2.72;;
63965;SDS011;50151;52.030;5.350;2023-02-28T17:56:19;3.88;;;2.28;;
63965;SDS011;50151;52.030;5.350;2023-02-28T17:58:47;3.00;;;2.15;;
63965;SDS011;50151;52.030;5.350;2023-02-28T18:01:14;4.82;;;3.63;;
63965;SDS011;50151;52.030;5.350;2023-02-28T18:03:41;5.25;;;3.22;;
63965;SDS011;50151;52.030;5.350;2023-02-28T18:06:13;9.88;;;4.03;;
63965;SDS011;50151;52.030;5.350;2023-02-28T18:08:43;5.85;;;4.40;;
63965;SDS011;50151;52.030;5.350;2023-02-28T18:11:10;8.30;;;5.00;;
63965;SDS011;50151;52.030;5.350;2023-02-28T18:13:44;9.88;;;4.30;;
63965;SDS011;50151;52.030;5.350;2023-02-28T18:16:15;5.07;;;3.35;;
63965;SDS011;50151;52.030;5.350;2023-02-28T18:18:43;8.65;;;2.60;;
63965;SDS011;50151;52.030;5.350;2023-02-28T18:21:11;4.70;;;2.13;;
63965;SDS011;50151;52.030;5.350;2023-02-28T18:23:40;8.82;;;2.20;;
63965;SDS011;50151;52.030;5.350;2023-02-28T18:26:13;3.53;;;2.70;;
63965;SDS011;50151;52.030;5.350;2023-02-28T18:28:42;5.65;;;3.40;;
63965;SDS011;50151;52.030;5.350;2023-02-28T18:31:10;7.47;;;2.20;;
63965;SDS011;50151;52.030;5.350;2023-02-28T18:33:40;3.70;;;1.92;;
63965;SDS011;50151;52.030;5.350;2023-02-28T18:36:08;7.03;;;4.38;;
63965;SDS011;50151;52.030;5.350;2023-02-28T18:38:36;14.43;;;6.88;;
63965;SDS011;50151;52.030;5.350;2023-02-28T18:41:03;9.77;;;6.50;;
63965;SDS011;50151;52.030;5.350;2023-02-28T18:43:32;6.88;;;4.60;;
63965;SDS011;50151;52.030;5.350;2023-02-28T18:46:04;6.82;;;3.70;;
63965;SDS011;50151;52.030;5.350;2023-02-28T18:48:35;7.00;;;3.10;;
63965;SDS011;50151;52.030;5.350;2023-02-28T18:51:07;5.03;;;3.30;;
63965;SDS011;50151;52.030;5.350;2023-02-28T18:53:39;5.57;;;3.72;;
63965;SDS011;50151;52.030;5.350;2023-02-28T18:56:08;6.25;;;4.22;;
63965;SDS011;50151;52.030;5.350;2023-02-28T18:58:36;8.73;;;4.10;;
63965;SDS011;50151;52.030;5.350;2023-02-28T19:01:03;10.73;;;4.43;;
63965;SDS011;50151;52.030;5.350;2023-02-28T19:03:38;10.32;;;5.28;;
63965;SDS011;50151;52.030;5.350;2023-02-28T19:06:05;9.02;;;4.13;;
63965;SDS011;50151;52.030;5.350;2023-02-28T19:08:32;6.40;;;3.22;;
63965;SDS011;50151;52.030;5.350;2023-02-28T19:10:59;7.47;;;3.30;;
63965;SDS011;50151;52.030;5.350;2023-02-28T19:13:30;6.50;;;2.55;;
63965;SDS011;50151;52.030;5.350;2023-02-28T19:16:01;5.22;;;3.00;;
63965;SDS011;50151;52.030;5.350;2023-02-28T19:18:29;6.40;;;2.85;;
63965;SDS011;50151;52.030;5.350;2023-02-28T19:20:56;5.18;;;2.90;;
63965;SDS011;50151;52.030;5.350;2023-02-28T19:23:24;6.43;;;3.50;;
63965;SDS011;50151;52.030;5.350;2023-02-28T19:25:51;6.80;;;4.25;;
63965;SDS011;50151;52.030;5.350;2023-02-28T19:28:18;7.03;;;4.85;;
63965;SDS011;50151;52.030;5.350;2023-02-28T19:30:46;9.23;;;5.30;;
63965;SDS011;50151;52.030;5.350;2023-02-28T19:33:14;9.93;;;5.60;;
63965;SDS011;50151;52.030;5.350;2023-02-28T19:35:41;5.95;;;3.95;;
63965;SDS011;50151;52.030;5.350;2023-02-28T19:38:08;5.63;;;3.65;;
63965;SDS011;50151;52.030;5.350;2023-02-28T19:40:36;8.95;;;5.20;;
63965;SDS011;50151;52.030;5.350;2023-02-28T19:43:03;17.23;;;10.50;;
63965;SDS011;50151;52.030;5.350;2023-02-28T19:45:31;21.75;;;11.05;;
63965;SDS011;50151;52.030;5.350;2023-02-28T19:47:59;19.88;;;10.98;;
63965;SDS011;50151;52.030;5.350;2023-02-28T19:50:25;15.45;;;9.32;;
63965;SDS011;50151;52.030;5.350;2023-02-28T19:52:52;17.13;;;7.97;;
63965;SDS011;50151;52.030;5.350;2023-02-28T19:55:19;10.25;;;7.22;;
63965;SDS011;50151;52.030;5.350;2023-02-28T19:57:46;9.52;;;6.10;;
63965;SDS011;50151;52.030;5.350;2023-02-28T20:00:13;9.00;;;6.43;;
63965;SDS011;50151;52.030;5.350;2023-02-28T20:02:40;10.05;;;6.50;;
63965;SDS011;50151;52.030;5.350;2023-02-28T20:05:08;12.23;;;6.75;;
63965;SDS011;50151;52.030;5.350;2023-02-28T20:07:35;9.27;;;5.10;;
63965;SDS011;50151;52.030;5.350;2023-02-28T20:10:02;7.90;;;4.80;;
63965;SDS011;50151;52.030;5.350;2023-02-28T20:12:29;6.45;;;4.35;;
63965;SDS011;50151;52.030;5.350;2023-02-28T20:14:56;5.25;;;3.53;;
63965;SDS011;50151;52.030;5.350;2023-02-28T20:17:27;8.30;;;4.32;;
63965;SDS011;50151;52.030;5.350;2023-02-28T20:19:54;6.13;;;3.95;;
63965;SDS011;50151;52.030;5.350;2023-02-28T20:22:21;6.57;;;3.88;;
63965;SDS011;50151;52.030;5.350;2023-02-28T20:24:47;7.10;;;3.90;;
63965;SDS011;50151;52.030;5.350;2023-02-28T20:27:14;8.93;;;3.88;;
63965;SDS011;50151;52.030;5.350;2023-02-28T20:29:41;5.80;;;3.72;;
63965;SDS011;50151;52.030;5.350;2023-02-28T20:32:08;5.60;;;3.55;;
63965;SDS011;50151;52.030;5.350;2023-02-28T20:34:35;5.72;;;3.92;;
63965;SDS011;50151;52.030;5.350;2023-02-28T20:37:02;6.68;;;3.85;;
63965;SDS011;50151;52.030;5.350;2023-02-28T20:39:28;7.32;;;4.07;;
63965;SDS011;50151;52.030;5.350;2023-02-28T20:41:55;6.57;;;4.03;;
63965;SDS011;50151;52.030;5.350;2023-02-28T20:44:22;7.35;;;3.80;;
63965;SDS011;50151;52.030;5.350;2023-02-28T20:46:48;6.95;;;4.65;;
63965;SDS011;50151;52.030;5.350;2023-02-28T20:49:15;5.93;;;4.30;;
63965;SDS011;50151;52.030;5.350;2023-02-28T20:51:42;6.38;;;4.45;;
63965;SDS011;50151;52.030;5.350;2023-02-28T20:54:08;6.82;;;4.18;;
63965;SDS011;50151;52.030;5.350;2023-02-28T20:56:38;6.20;;;4.05;;
63965;SDS011;50151;52.030;5.350;2023-02-28T20:59:05;11.98;;;4.43;;
63965;SDS011;50151;52.030;5.350;2023-02-28T21:01:35;6.05;;;4.18;;
63965;SDS011;50151;52.030;5.350;2023-02-28T21:04:03;6.75;;;3.97;;
63965;SDS011;50151;52.030;5.350;2023-02-28T21:06:32;6.18;;;4.13;;
63965;SDS011;50151;52.030;5.350;2023-02-28T21:09:06;6.97;;;4.32;;
63965;SDS011;50151;52.030;5.350;2023-02-28T21:11:34;8.38;;;4.55;;
63965;SDS011;50151;52.030;5.350;2023-02-28T21:14:06;8.60;;;4.45;;
63965;SDS011;50151;52.030;5.350;2023-02-28T21:16:37;6.97;;;4.60;;
63965;SDS011;50151;52.030;5.350;2023-02-28T21:19:04;7.95;;;4.60;;
63965;SDS011;50151;52.030;5.350;2023-02-28T21:21:34;6.32;;;4.70;;
63965;SDS011;50151;52.030;5.350;2023-02-28T21:24:12;10.63;;;5.47;;
63965;SDS011;50151;52.030;5.350;2023-02-28T21:26:41;12.52;;;6.03;;
63965;SDS011;50151;52.030;5.350;2023-02-28T21:29:09;9.13;;;5.55;;
63965;SDS011;50151;52.030;5.350;2023-02-28T21:31:37;8.70;;;5.55;;
63965;SDS011;50151;52.030;5.350;2023-02-28T21:34:05;11.18;;;5.72;;
63965;SDS011;50151;52.030;5.350;2023-02-28T21:36:37;7.70;;;5.38;;
63965;SDS011;50151;52.030;5.350;2023-02-28T21:39:07;7.75;;;5.78;;
63965;SDS011;50151;52.030;5.350;2023-02-28T21:41:37;9.27;;;5.95;;
63965;SDS011;50151;52.030;5.350;2023-02-28T21:44:04;7.70;;;5.15;;
63965;SDS011;50151;52.030;5.350;2023-02-28T21:46:30;8.82;;;5.82;;
63965;SDS011;50151;52.030;5.350;2023-02-28T21:48:58;9.30;;;6.30;;
63965;SDS011;50151;52.030;5.350;2023-02-28T21:51:26;8.43;;;5.75;;
63965;SDS011;50151;52.030;5.350;2023-02-28T21:53:59;9.02;;;5.20;;
63965;SDS011;50151;52.030;5.350;2023-02-28T21:56:27;9.75;;;5.30;;
63965;SDS011;50151;52.030;5.350;2023-02-28T21:58:55;10.35;;;5.32;;
63965;SDS011;50151;52.030;5.350;2023-02-28T22:01:27;8.13;;;5.60;;
63965;SDS011;50151;52.030;5.350;2023-02-28T22:04:00;8.43;;;5.00;;
63965;SDS011;50151;52.030;5.350;2023-02-28T22:06:29;7.65;;;5.30;;
63965;SDS011;50151;52.030;5.350;2023-02-28T22:08:58;10.05;;;5.25;;
63965;SDS011;50151;52.030;5.350;2023-02-28T22:11:27;8.75;;;5.13;;
63965;SDS011;50151;52.030;5.350;2023-02-28T22:13:55;7.38;;;5.10;;
63965;SDS011;50151;52.030;5.350;2023-02-28T22:16:23;8.25;;;5.55;;
63965;SDS011;50151;52.030;5.350;2023-02-28T22:18:56;7.03;;;5.03;;
63965;SDS011;50151;52.030;5.350;2023-02-28T22:21:23;8.43;;;5.38;;
63965;SDS011;50151;52.030;5.350;2023-02-28T22:23:50;9.13;;;5.45;;
63965;SDS011;50151;52.030;5.350;2023-02-28T22:26:18;8.52;;;5.68;;
63965;SDS011;50151;52.030;5.350;2023-02-28T22:28:46;11.13;;;6.05;;
63965;SDS011;50151;52.030;5.350;2023-02-28T22:31:16;8.30;;;5.45;;
63965;SDS011;50151;52.030;5.350;2023-02-28T22:33:44;7.75;;;5.45;;
63965;SDS011;50151;52.030;5.350;2023-02-28T22:36:12;10.10;;;6.07;;
63965;SDS011;50151;52.030;5.350;2023-02-28T22:38:41;10.88;;;5.65;;
63965;SDS011;50151;52.030;5.350;2023-02-28T22:41:08;9.65;;;6.32;;
63965;SDS011;50151;52.030;5.350;2023-02-28T22:43:37;11.80;;;5.72;;
63965;SDS011;50151;52.030;5.350;2023-02-28T22:46:05;11.27;;;6.00;;
63965;SDS011;50151;52.030;5.350;2023-02-28T22:48:33;7.80;;;5.90;;
63965;SDS011;50151;52.030;5.350;2023-02-28T22:51:05;11.27;;;6.75;;
63965;SDS011;50151;52.030;5.350;2023-02-28T22:53:33;11.02;;;6.50;;
63965;SDS011;50151;52.030;5.350;2023-02-28T22:56:01;12.35;;;7.70;;
63965;SDS011;50151;52.030;5.350;2023-02-28T22:58:27;10.85;;;7.10;;
63965;SDS011;50151;52.030;5.350;2023-02-28T23:00:54;13.85;;;6.28;;
63965;SDS011;50151;52.030;5.350;2023-02-28T23:03:23;14.48;;;7.40;;
63965;SDS011;50151;52.030;5.350;2023-02-28T23:05:51;10.63;;;6.70;;
63965;SDS011;50151;52.030;5.350;2023-02-28T23:08:18;10.07;;;6.35;;
63965;SDS011;50151;52.030;5.350;2023-02-28T23:10:50;10.68;;;6.53;;
63965;SDS011;50151;52.030;5.350;2023-02-28T23:13:17;13.18;;;7.03;;
63965;SDS011;50151;52.030;5.350;2023-02-28T23:15:45;12.32;;;6.93;;
63965;SDS011;50151;52.030;5.350;2023-02-28T23:18:13;13.10;;;6.45;;
63965;SDS011;50151;52.030;5.350;2023-02-28T23:20:40;8.85;;;6.15;;
63965;SDS011;50151;52.030;5.350;2023-02-28T23:23:07;10.30;;;6.18;;
63965;SDS011;50151;52.030;5.350;2023-02-28T23:25:38;9.95;;;5.95;;
63965;SDS011;50151;52.030;5.350;2023-02-28T23:28:06;10.07;;;6.07;;
63965;SDS011;50151;52.030;5.350;2023-02-28T23:30:33;11.60;;;6.47;;
63965;SDS011;50151;52.030;5.350;2023-02-28T23:33:03;9.75;;;6.35;;
63965;SDS011;50151;52.030;5.350;2023-02-28T23:35:31;12.45;;;6.55;;
63965;SDS011;50151;52.030;5.350;2023-02-28T23:37:58;11.85;;;6.75;;
63965;SDS011;50151;52.030;5.350;2023-02-28T23:40:25;14.82;;;6.85;;
63965;SDS011;50151;52.030;5.350;2023-02-28T23:42:52;8.75;;;5.85;;
63965;SDS011;50151;52.030;5.350;2023-02-28T23:45:18;10.07;;;6.05;;
63965;SDS011;50151;52.030;5.350;2023-02-28T23:47:45;10.38;;;6.22;;
63965;SDS011;50151;52.030;5.350;2023-02-28T23:50:12;11.32;;;6.93;;
63965;SDS011;50151;52.030;5.350;2023-02-28T23:52:38;10.23;;;6.18;;
63965;SDS011;50151;52.030;5.350;2023-02-28T23:55:05;9.70;;;6.13;;
63965;SDS011;50151;52.030;5.350;2023-02-28T23:57:33;9.95;;;6.22;;
